createdAt,value
2019-03-23T00:02:00.925Z,29.00
2019-03-23T00:04:49.964Z,34.00
2019-03-23T00:07:20.639Z,34.57
2019-03-23T00:09:51.982Z,30.53
2019-03-23T00:12:35.526Z,33.40
2019-03-23T00:15:25.911Z,36.17
2019-03-23T00:20:56.236Z,26.00
2019-03-23T00:23:26.910Z,26.90
2019-03-23T00:28:56.763Z,27.97
2019-03-23T00:31:27.123Z,29.23
2019-03-23T00:33:57.850Z,31.33
2019-03-23T00:36:28.776Z,33.90
2019-03-23T00:38:59.480Z,33.30
2019-03-23T00:42:02.417Z,32.37
2019-03-23T00:44:39.152Z,34.63
2019-03-23T00:47:09.784Z,39.17
2019-03-23T00:49:58.798Z,32.23
2019-03-23T00:52:47.772Z,35.50
2019-03-23T00:55:18.511Z,34.50
2019-03-23T00:58:07.492Z,32.10
2019-03-23T01:03:40.748Z,35.87
2019-03-23T01:09:02.287Z,35.33
2019-03-23T01:14:34.383Z,35.73
2019-03-23T01:17:15.383Z,30.23
2019-03-23T01:20:04.800Z,32.43
2019-03-23T01:22:35.121Z,32.70
2019-03-23T01:25:24.099Z,37.43
2019-03-23T01:37:04.585Z,52.27
2019-03-23T01:39:34.874Z,54.40
2019-03-23T01:48:32.723Z,52.97
2019-03-23T01:51:21.709Z,49.00
2019-03-23T01:57:20.184Z,45.07
2019-03-23T02:00:09.254Z,47.13
2019-03-23T02:02:58.405Z,41.93
2019-03-23T02:05:47.430Z,46.27
2019-03-23T02:08:36.379Z,48.03
2019-03-23T02:11:06.953Z,39.53
2019-03-23T02:16:58.651Z,42.33
2019-03-23T02:19:29.860Z,45.37
2019-03-23T02:22:11.491Z,55.77
2019-03-23T02:24:52.969Z,61.03
2019-03-23T02:27:34.450Z,60.73
2019-03-23T02:30:05.030Z,68.87
2019-03-23T02:32:54.000Z,72.73
2019-03-23T02:35:42.969Z,72.20
2019-03-23T02:41:31.372Z,74.63
2019-03-23T02:44:20.363Z,73.80
2019-03-23T02:50:18.855Z,74.07
2019-03-23T02:53:08.078Z,84.83
2019-03-23T03:02:05.991Z,103.17
2019-03-23T03:04:55.016Z,93.83
2019-03-23T03:07:44.196Z,97.37
2019-03-23T03:10:51.894Z,92.07
2019-03-23T03:13:41.002Z,90.07
2019-03-23T03:16:30.034Z,88.50
2019-03-23T03:19:18.978Z,82.47
2019-03-23T03:21:49.355Z,83.23
2019-03-23T03:27:29.106Z,87.50
2019-03-23T03:36:29.906Z,85.73
2019-03-23T03:39:17.770Z,84.17
2019-03-23T03:41:48.279Z,81.97
2019-03-23T03:44:37.253Z,86.10
2019-03-23T03:47:26.267Z,81.77
2019-03-23T03:50:15.988Z,78.53
2019-03-23T03:52:48.024Z,78.10
2019-03-23T03:55:37.069Z,85.17
2019-03-23T03:58:46.378Z,71.70
2019-03-23T04:01:17.388Z,74.60
2019-03-23T04:04:06.502Z,73.00
2019-03-23T04:07:09.215Z,74.83
2019-03-23T04:15:58.621Z,68.50
2019-03-23T04:18:29.264Z,76.37
2019-03-23T04:21:30.145Z,74.07
2019-03-23T04:24:09.152Z,79.90
2019-03-23T04:32:48.436Z,79.90
2019-03-23T04:38:28.245Z,65.63
2019-03-23T04:47:07.906Z,78.33
2019-03-23T04:50:08.550Z,66.97
2019-03-23T04:55:56.968Z,71.33
2019-03-23T04:58:45.962Z,69.03
2019-03-23T05:07:43.961Z,67.63
2019-03-23T05:10:33.348Z,78.23
2019-03-23T05:13:22.385Z,74.90
2019-03-23T05:16:23.332Z,71.50
2019-03-23T05:18:54.923Z,68.07
2019-03-23T05:21:36.331Z,69.43
2019-03-23T05:24:18.399Z,77.90
2019-03-23T05:27:27.932Z,74.07
2019-03-23T05:33:01.009Z,73.07
2019-03-23T05:38:59.496Z,83.53
2019-03-23T05:44:39.326Z,93.30
2019-03-23T05:47:28.352Z,98.23
2019-03-23T05:50:17.319Z,96.77
2019-03-23T05:56:15.880Z,101.50
2019-03-23T05:59:04.925Z,113.97
2019-03-23T06:01:53.928Z,117.83
2019-03-23T06:04:42.905Z,107.93
2019-03-23T06:07:31.905Z,113.40
2019-03-23T06:10:02.294Z,115.40
2019-03-23T06:15:50.666Z,123.37
2019-03-23T06:18:39.691Z,116.57
2019-03-23T06:21:21.189Z,114.53
2019-03-23T06:24:02.685Z,135.40
2019-03-23T06:26:44.054Z,123.23
2019-03-23T06:29:25.690Z,122.60
2019-03-23T06:32:07.263Z,127.63
2019-03-23T06:34:48.545Z,133.63
2019-03-23T06:37:28.830Z,112.83
2019-03-23T06:40:17.870Z,109.20
2019-03-23T06:43:06.844Z,104.97
2019-03-23T06:45:56.166Z,112.93
2019-03-23T06:54:54.078Z,101.30
2019-03-23T06:57:24.832Z,110.57
2019-03-23T06:59:55.124Z,97.93
2019-03-23T07:06:03.736Z,101.07
2019-03-23T07:08:52.785Z,106.43
2019-03-23T07:11:23.155Z,98.40
2019-03-23T07:13:54.725Z,91.37
2019-03-23T07:16:43.785Z,92.60
2019-03-23T07:19:14.453Z,104.40
2019-03-23T07:22:03.486Z,92.40
2019-03-23T07:24:52.469Z,99.33
2019-03-23T07:27:23.346Z,100.30
2019-03-23T07:30:13.180Z,98.30
2019-03-23T07:33:02.196Z,92.13
2019-03-23T07:36:03.032Z,101.23
2019-03-23T07:38:34.550Z,96.03
2019-03-23T07:41:16.134Z,100.17
2019-03-23T07:43:57.766Z,86.27
2019-03-23T07:46:38.929Z,100.00
2019-03-23T07:49:20.534Z,101.33
2019-03-23T07:51:51.198Z,92.87
2019-03-23T07:55:00.503Z,96.23
2019-03-23T07:57:49.538Z,96.60
2019-03-23T08:03:20.169Z,89.67
2019-03-23T08:06:09.511Z,90.40
2019-03-23T08:08:58.548Z,87.83
2019-03-23T08:11:47.486Z,86.00
2019-03-23T08:14:36.836Z,83.57
2019-03-23T08:17:37.516Z,86.23
2019-03-23T08:20:16.537Z,83.00
2019-03-23T08:23:05.583Z,82.57
2019-03-23T08:25:47.324Z,80.70
2019-03-23T08:28:28.394Z,83.30
2019-03-23T08:31:09.995Z,90.63
2019-03-23T08:33:52.137Z,89.80
2019-03-23T08:36:33.294Z,89.30
2019-03-23T08:39:14.293Z,91.10
2019-03-23T08:41:55.110Z,90.40
2019-03-23T08:44:36.594Z,85.70
2019-03-23T08:47:18.358Z,89.20
2019-03-23T08:49:59.701Z,90.63
2019-03-23T08:52:41.440Z,88.10
2019-03-23T08:55:23.301Z,87.30
2019-03-23T08:57:54.785Z,88.57
2019-03-23T09:00:43.846Z,83.57
2019-03-23T09:03:32.864Z,85.37
2019-03-23T09:08:44.197Z,88.37
2019-03-23T09:11:53.973Z,96.40
2019-03-23T09:18:06.989Z,84.60
2019-03-23T09:29:43.743Z,87.13
2019-03-23T09:32:14.884Z,87.77
2019-03-23T09:34:45.324Z,87.97
2019-03-23T09:37:15.713Z,78.83
2019-03-23T09:39:46.569Z,90.23
2019-03-23T09:42:16.889Z,77.67
2019-03-23T09:44:47.208Z,78.10
2019-03-23T09:47:17.750Z,78.27
2019-03-23T09:49:48.589Z,72.63
2019-03-23T09:52:19.228Z,70.37
2019-03-23T09:54:49.580Z,73.30
2019-03-23T09:57:19.949Z,74.30
2019-03-23T09:59:50.313Z,79.30
2019-03-23T10:02:21.086Z,70.93
2019-03-23T10:04:51.408Z,70.03
2019-03-23T10:07:21.799Z,69.20
2019-03-23T10:09:53.496Z,78.03
2019-03-23T10:12:23.823Z,70.77
2019-03-23T10:14:54.544Z,70.53
2019-03-23T10:17:25.124Z,73.67
2019-03-23T10:19:55.416Z,74.70
2019-03-23T10:22:25.760Z,81.43
2019-03-23T10:24:58.384Z,73.73
2019-03-23T10:27:28.928Z,77.50
2019-03-23T10:29:59.404Z,77.10
2019-03-23T10:32:41.127Z,76.50
2019-03-23T10:35:22.643Z,75.77
2019-03-23T10:38:04.053Z,78.00
2019-03-23T10:40:45.870Z,80.43
2019-03-23T10:43:16.550Z,79.87
2019-03-23T10:45:47.229Z,80.93
2019-03-23T10:48:17.623Z,77.10
2019-03-23T10:50:48.201Z,76.77
2019-03-23T10:59:28.088Z,71.67
2019-03-23T11:02:17.090Z,69.03
2019-03-23T11:04:47.404Z,68.50
2019-03-23T11:07:36.635Z,66.33
2019-03-23T11:10:25.764Z,66.07
2019-03-23T11:16:05.716Z,62.07
2019-03-23T11:18:54.725Z,60.03
2019-03-23T11:21:43.714Z,57.53
2019-03-23T11:24:52.500Z,55.73
2019-03-23T11:28:01.609Z,54.57
2019-03-23T11:30:45.487Z,60.60
2019-03-23T11:33:16.285Z,57.37
2019-03-23T11:36:05.531Z,56.07
2019-03-23T11:38:54.565Z,57.70
2019-03-23T11:41:43.654Z,54.27
2019-03-23T11:47:13.799Z,57.23
2019-03-23T11:49:44.249Z,55.23
2019-03-23T11:52:14.647Z,56.80
2019-03-23T11:55:03.614Z,55.37
2019-03-23T11:57:52.725Z,56.67
2019-03-23T12:00:41.777Z,52.00
2019-03-23T12:03:12.184Z,49.93
2019-03-23T12:06:01.291Z,52.10
2019-03-23T12:08:31.645Z,50.73
2019-03-23T12:11:20.733Z,49.57
2019-03-23T12:13:51.173Z,46.07
2019-03-23T12:16:21.541Z,42.00
2019-03-23T12:18:52.250Z,51.07
2019-03-23T12:21:22.735Z,44.97
2019-03-23T12:23:53.322Z,49.83
2019-03-23T12:26:42.417Z,45.87
2019-03-23T12:29:13.095Z,46.93
2019-03-23T12:32:03.978Z,45.60
2019-03-23T12:34:34.613Z,46.73
2019-03-23T12:40:06.461Z,48.13
2019-03-23T12:42:55.645Z,50.60
2019-03-23T12:45:44.742Z,47.33
2019-03-23T12:48:15.054Z,46.70
2019-03-23T12:50:45.650Z,51.40
2019-03-23T12:53:15.970Z,50.50
2019-03-23T12:55:46.306Z,53.90
2019-03-23T12:58:17.006Z,48.57
2019-03-23T13:00:47.393Z,50.10
2019-03-23T13:03:17.884Z,49.90
2019-03-23T13:05:48.543Z,51.03
2019-03-23T13:08:18.977Z,55.67
2019-03-23T13:10:49.346Z,50.03
2019-03-23T13:13:20.033Z,52.43
2019-03-23T13:15:50.402Z,51.87
2019-03-23T13:18:27.176Z,58.07
2019-03-23T13:20:53.203Z,50.47
2019-03-23T13:23:23.575Z,49.63
2019-03-23T13:28:16.333Z,46.13
2019-03-23T13:30:46.765Z,44.70
2019-03-23T13:33:17.677Z,44.23
2019-03-23T13:35:48.684Z,42.57
2019-03-23T13:38:37.780Z,44.37
2019-03-23T13:41:26.826Z,44.27
2019-03-23T13:44:34.752Z,44.50
2019-03-23T13:47:06.524Z,44.87
2019-03-23T13:49:37.577Z,43.57
2019-03-23T13:52:07.979Z,47.37
2019-03-23T13:54:57.063Z,47.93
2019-03-23T13:57:27.380Z,47.40
2019-03-23T14:00:16.504Z,46.73
2019-03-23T14:03:05.604Z,48.53
2019-03-23T14:05:54.766Z,47.07
2019-03-23T14:08:25.167Z,48.57
2019-03-23T14:11:16.187Z,43.50
2019-03-23T14:13:46.577Z,42.50
2019-03-23T14:16:17.252Z,39.67
2019-03-23T14:19:06.549Z,42.87
2019-03-23T14:28:26.614Z,40.27
2019-03-23T14:31:15.636Z,46.37
2019-03-23T14:33:46.487Z,42.37
2019-03-23T14:36:16.913Z,45.07
2019-03-23T14:38:47.232Z,42.20
2019-03-23T14:41:37.903Z,41.03
2019-03-23T14:44:08.329Z,41.67
2019-03-23T14:46:57.483Z,35.60
2019-03-23T14:49:27.840Z,38.70
2019-03-23T14:52:18.811Z,37.63
2019-03-23T14:54:49.177Z,38.57
2019-03-23T14:57:19.861Z,37.13
2019-03-23T15:02:32.709Z,39.30
2019-03-23T15:05:21.803Z,41.00
2019-03-23T15:07:52.438Z,36.50
2019-03-23T15:10:41.476Z,37.50
2019-03-23T15:13:30.511Z,40.53
2019-03-23T15:16:00.937Z,46.80
2019-03-23T15:18:31.826Z,40.80
2019-03-23T15:21:16.076Z,42.77
2019-03-23T15:23:34.224Z,41.73
2019-03-23T15:26:23.608Z,38.20
2019-03-23T15:29:12.679Z,39.67
2019-03-23T15:32:01.770Z,42.23
2019-03-23T15:34:50.825Z,38.60
2019-03-23T15:37:32.595Z,45.67
2019-03-23T15:40:13.884Z,38.73
2019-03-23T15:42:55.417Z,46.20
2019-03-23T15:45:25.941Z,42.50
2019-03-23T15:47:56.182Z,41.40
2019-03-23T15:50:45.300Z,51.60
2019-03-23T15:53:15.635Z,44.67
2019-03-23T15:55:46.465Z,49.53
2019-03-23T15:58:16.851Z,44.30
2019-03-23T16:01:26.351Z,48.17
2019-03-23T16:04:29.357Z,46.47
2019-03-23T16:10:17.732Z,47.07
2019-03-23T16:16:16.451Z,46.30
2019-03-23T16:24:37.475Z,45.97
2019-03-23T16:27:27.008Z,48.87
2019-03-23T16:30:36.859Z,51.87
2019-03-23T16:33:26.035Z,48.00
2019-03-23T16:51:35.130Z,48.10
2019-03-23T16:54:06.068Z,51.87
2019-03-23T16:56:36.538Z,53.63
2019-03-23T16:59:07.570Z,49.17
2019-03-23T17:01:40.795Z,52.40
2019-03-23T17:04:11.444Z,50.00
2019-03-23T17:06:46.602Z,51.07
2019-03-23T17:09:18.630Z,51.03
2019-03-23T17:11:49.400Z,47.37
2019-03-23T17:14:19.938Z,53.33
2019-03-23T17:16:50.940Z,52.63
2019-03-23T17:19:21.908Z,55.47
2019-03-23T17:21:52.455Z,53.83
2019-03-23T17:24:22.827Z,53.40
2019-03-23T17:26:53.952Z,54.60
2019-03-23T17:29:24.845Z,58.27
2019-03-23T17:31:55.230Z,61.67
2019-03-23T17:34:25.973Z,55.63
2019-03-23T17:36:56.652Z,55.97
2019-03-23T17:39:27.191Z,59.63
2019-03-23T17:41:58.325Z,60.67
2019-03-23T17:44:30.857Z,60.47
2019-03-23T17:47:02.881Z,56.37
2019-03-23T17:49:33.727Z,67.13
2019-03-23T17:52:04.128Z,59.50
2019-03-23T17:54:34.617Z,62.00
2019-03-23T17:57:05.484Z,62.53
2019-03-23T17:59:38.493Z,63.00
2019-03-23T18:02:09.250Z,62.97
2019-03-23T18:04:40.266Z,59.47
2019-03-23T18:07:11.013Z,63.00
2019-03-23T18:09:41.394Z,65.77
2019-03-23T18:12:16.023Z,67.43
2019-03-23T18:14:46.501Z,62.50
2019-03-23T18:17:16.953Z,64.07
2019-03-23T18:19:47.636Z,70.03
2019-03-23T18:22:18.140Z,65.12
2019-03-23T18:24:49.069Z,63.93
2019-03-23T18:27:20.773Z,66.93
2019-03-23T18:29:51.252Z,68.53
2019-03-23T18:32:22.218Z,65.97
2019-03-23T18:34:53.328Z,64.13
2019-03-23T18:37:23.925Z,69.63
2019-03-23T18:39:54.901Z,67.80
2019-03-23T18:42:25.481Z,65.90
2019-03-23T18:44:56.383Z,72.17
2019-03-23T18:47:27.045Z,70.10
2019-03-23T18:49:57.704Z,65.17
2019-03-23T18:52:28.296Z,69.83
2019-03-23T18:54:58.871Z,73.63
2019-03-23T18:57:29.837Z,72.17
2019-03-23T19:00:02.677Z,71.33
2019-03-23T19:02:34.021Z,69.27
2019-03-23T19:05:04.889Z,72.03
2019-03-23T19:07:35.499Z,75.87
2019-03-23T19:10:07.054Z,74.57
2019-03-23T19:12:37.569Z,69.30
2019-03-23T19:15:09.227Z,77.60
2019-03-23T19:17:40.322Z,67.60
2019-03-23T19:20:10.933Z,69.47
2019-03-23T19:22:41.337Z,73.53
2019-03-23T19:25:18.131Z,70.67
2019-03-23T19:27:44.089Z,70.37
2019-03-23T19:30:15.979Z,70.57
2019-03-23T19:32:46.378Z,66.37
2019-03-23T19:35:16.736Z,68.70
2019-03-23T19:37:47.172Z,69.87
2019-03-23T19:40:17.534Z,75.70
2019-03-23T19:42:48.724Z,75.47
2019-03-23T19:45:37.870Z,77.60
2019-03-23T19:48:08.637Z,71.63
2019-03-23T19:50:41.931Z,74.53
2019-03-23T19:53:12.282Z,76.40
2019-03-23T19:55:44.475Z,73.30
2019-03-23T19:58:14.807Z,79.23
2019-03-23T20:00:45.236Z,75.07
2019-03-23T20:03:19.266Z,72.07
2019-03-23T20:05:49.897Z,81.07
2019-03-23T20:08:20.409Z,75.33
2019-03-23T20:10:51.332Z,80.85
2019-03-23T20:13:21.842Z,77.47
2019-03-23T20:15:52.425Z,73.93
2019-03-23T20:18:23.280Z,69.23
2019-03-23T20:20:54.144Z,76.90
2019-03-23T20:23:24.534Z,75.43
2019-03-23T20:25:56.446Z,76.03
2019-03-23T20:28:27.246Z,74.93
2019-03-23T20:30:57.796Z,76.93
2019-03-23T20:37:08.517Z,74.80
2019-03-23T20:40:16.913Z,81.27
2019-03-23T20:45:59.339Z,81.30
2019-03-23T20:48:40.736Z,76.53
2019-03-23T20:51:21.956Z,79.40
2019-03-23T20:53:52.813Z,75.30
2019-03-23T20:56:23.365Z,77.27
2019-03-23T20:59:12.625Z,74.00
2019-03-23T21:01:43.016Z,75.70
2019-03-23T21:04:13.765Z,73.87
2019-03-23T21:07:24.579Z,70.87
2019-03-23T21:13:24.173Z,72.90
2019-03-23T21:16:13.928Z,74.20
2019-03-23T21:18:44.458Z,75.97
2019-03-23T21:21:17.843Z,66.57
2019-03-23T21:23:48.270Z,70.83
2019-03-23T21:26:18.655Z,74.70
2019-03-23T21:28:49.463Z,72.70
2019-03-23T21:31:19.952Z,74.67
2019-03-23T21:33:50.496Z,66.63
2019-03-23T21:36:21.668Z,66.70
2019-03-23T21:38:52.212Z,64.87
2019-03-23T21:41:22.652Z,70.33
2019-03-23T21:43:53.775Z,74.37
2019-03-23T21:46:24.289Z,66.07
2019-03-23T21:48:54.783Z,67.60
2019-03-23T21:51:25.656Z,69.13
2019-03-23T21:53:56.202Z,65.43
2019-03-23T21:56:26.582Z,65.83
2019-03-23T21:58:57.426Z,69.13
2019-03-23T22:01:27.908Z,67.03
2019-03-23T22:03:58.318Z,65.50
2019-03-23T22:06:28.747Z,60.57
2019-03-23T22:08:59.598Z,62.37
2019-03-23T22:11:30.009Z,58.10
2019-03-23T22:14:59.102Z,58.50
2019-03-23T22:21:01.422Z,58.70
2019-03-23T22:27:37.857Z,60.77
2019-03-23T22:39:59.728Z,61.17
2019-03-23T22:48:37.519Z,51.83
2019-03-23T22:51:18.587Z,54.87
2019-03-23T22:54:00.107Z,56.93
2019-03-23T22:56:41.903Z,53.97
2019-03-23T22:59:23.403Z,50.87
2019-03-23T23:02:04.832Z,51.23
2019-03-23T23:04:46.910Z,52.87
2019-03-23T23:07:28.469Z,49.17
2019-03-23T23:10:09.334Z,49.30
2019-03-23T23:12:50.919Z,51.57
2019-03-23T23:15:32.554Z,45.93
2019-03-23T23:18:13.981Z,46.10
2019-03-23T23:20:55.291Z,43.20
2019-03-23T23:23:26.391Z,43.70
2019-03-23T23:26:29.391Z,44.50
2019-03-23T23:28:49.052Z,44.90
2019-03-23T23:31:38.150Z,47.60
2019-03-23T23:34:27.252Z,42.60
2019-03-23T23:36:57.540Z,43.73
2019-03-23T23:39:27.902Z,44.00
2019-03-23T23:42:17.186Z,43.40
2019-03-23T23:44:47.539Z,43.80
2019-03-23T23:47:38.163Z,46.57
2019-03-23T23:50:19.225Z,42.27
2019-03-23T23:53:00.597Z,46.67
2019-03-23T23:55:42.440Z,47.00
2019-03-23T23:58:24.087Z,44.50
